createdAt,value
2023-02-11T00:01:32.861Z,100.00
2023-02-11T00:04:01.683Z,100.00
2023-02-11T00:06:30.083Z,99.94
2023-02-11T00:08:57.422Z,99.90
2023-02-11T00:11:26.545Z,99.66
2023-02-11T00:13:53.582Z,99.54
2023-02-11T00:16:21.259Z,98.89
2023-02-11T00:18:48.978Z,98.51
2023-02-11T00:21:18.331Z,98.85
2023-02-11T00:23:46.080Z,98.89
2023-02-11T00:26:14.599Z,99.18
2023-02-11T00:28:42.374Z,99.28
2023-02-11T00:31:11.181Z,99.22
2023-02-11T00:33:38.601Z,99.42
2023-02-11T00:36:12.231Z,99.61
2023-02-11T00:38:39.592Z,99.50
2023-02-11T00:41:07.386Z,99.62
2023-02-11T00:43:35.721Z,99.63
2023-02-11T00:46:03.201Z,99.61
2023-02-11T00:48:30.644Z,99.59
2023-02-11T00:50:57.762Z,99.64
2023-02-11T00:53:25.755Z,99.26
2023-02-11T00:55:53.009Z,99.43
2023-02-11T00:58:20.449Z,99.12
2023-02-11T01:00:47.964Z,99.32
2023-02-11T01:03:15.808Z,99.38
2023-02-11T01:05:43.290Z,98.86
2023-02-11T01:08:10.594Z,98.77
2023-02-11T01:10:37.750Z,99.08
2023-02-11T01:13:06.513Z,98.68
2023-02-11T01:15:33.905Z,98.51
2023-02-11T01:18:00.992Z,98.41
2023-02-11T01:20:29.631Z,99.42
2023-02-11T01:22:57.352Z,99.46
2023-02-11T01:25:24.475Z,99.65
2023-02-11T01:27:51.485Z,99.80
2023-02-11T01:30:18.815Z,99.24
2023-02-11T01:32:47.441Z,98.82
2023-02-11T01:35:14.511Z,98.14
2023-02-11T01:37:42.085Z,98.97
2023-02-11T01:40:14.806Z,99.31
2023-02-11T01:42:42.839Z,99.29
2023-02-11T01:45:57.972Z,98.96
2023-02-11T01:48:26.074Z,99.53
2023-02-11T01:50:59.682Z,99.29
2023-02-11T01:53:46.807Z,99.41
2023-02-11T01:56:32.909Z,99.70
2023-02-11T01:59:05.234Z,99.85
2023-02-11T02:01:33.839Z,99.92
2023-02-11T02:04:03.478Z,99.60
2023-02-11T02:06:38.209Z,99.67
2023-02-11T02:09:17.793Z,99.85
2023-02-11T02:11:45.159Z,100.00
2023-02-11T02:14:13.018Z,100.00
2023-02-11T02:16:40.584Z,100.00
2023-02-11T02:19:31.378Z,100.00
2023-02-11T02:22:37.481Z,100.00
2023-02-11T02:25:42.963Z,100.00
2023-02-11T02:28:13.124Z,100.00
2023-02-11T02:30:51.900Z,100.00
2023-02-11T02:33:29.942Z,100.00
2023-02-11T02:36:08.728Z,100.00
2023-02-11T02:38:59.377Z,100.00
2023-02-11T02:41:31.920Z,100.00
2023-02-11T02:43:59.352Z,100.00
2023-02-11T02:46:32.281Z,100.00
2023-02-11T02:49:00.429Z,100.00
2023-02-11T02:51:52.185Z,100.00
2023-02-11T02:54:43.765Z,100.00
2023-02-11T02:57:20.388Z,100.00
2023-02-11T03:00:04.439Z,100.00
2023-02-11T03:02:32.133Z,100.00
2023-02-11T03:05:02.426Z,100.00
2023-02-11T03:07:32.579Z,100.00
2023-02-11T03:10:09.775Z,100.00
2023-02-11T03:12:37.791Z,99.62
2023-02-11T03:15:06.248Z,97.57
2023-02-11T03:17:35.151Z,95.37
2023-02-11T03:20:04.333Z,93.96
2023-02-11T03:22:42.633Z,92.76
2023-02-11T03:25:09.876Z,91.54
2023-02-11T03:27:58.114Z,90.64
2023-02-11T03:30:29.062Z,89.75
2023-02-11T03:33:03.841Z,89.65
2023-02-11T03:35:47.798Z,89.62
2023-02-11T03:38:20.519Z,88.81
2023-02-11T03:40:47.783Z,88.67
2023-02-11T03:43:23.145Z,88.57
2023-02-11T03:45:51.794Z,87.74
2023-02-11T03:48:28.201Z,87.60
2023-02-11T03:50:56.386Z,87.96
2023-02-11T03:53:23.784Z,88.00
2023-02-11T03:55:52.797Z,88.05
2023-02-11T03:58:20.489Z,88.23
2023-02-11T04:00:47.578Z,88.09
2023-02-11T04:03:15.578Z,87.96
2023-02-11T04:05:42.730Z,88.16
2023-02-11T04:08:09.733Z,88.56
2023-02-11T04:10:37.285Z,88.40
2023-02-11T04:13:04.258Z,88.62
2023-02-11T04:15:31.281Z,89.29
2023-02-11T04:17:58.586Z,89.75
2023-02-11T04:20:25.577Z,90.03
2023-02-11T04:22:52.587Z,90.52
2023-02-11T04:25:20.034Z,89.87
2023-02-11T04:27:47.078Z,89.97
2023-02-11T04:30:14.240Z,89.64
2023-02-11T04:32:41.549Z,89.18
2023-02-11T04:35:08.801Z,88.70
2023-02-11T04:37:35.906Z,88.06
2023-02-11T04:40:03.709Z,87.49
2023-02-11T04:42:30.822Z,87.35
2023-02-11T04:44:57.838Z,87.10
2023-02-11T04:47:25.140Z,86.75
2023-02-11T04:49:52.160Z,87.04
2023-02-11T04:52:19.149Z,86.86
2023-02-11T04:54:46.494Z,86.88
2023-02-11T04:57:13.498Z,87.32
2023-02-11T04:59:40.729Z,87.77
2023-02-11T05:02:08.152Z,87.85
2023-02-11T05:04:35.232Z,88.00
2023-02-11T05:07:02.384Z,88.72
2023-02-11T05:09:29.707Z,89.09
2023-02-11T05:11:56.719Z,89.28
2023-02-11T05:14:23.745Z,89.53
2023-02-11T05:16:51.132Z,89.35
2023-02-11T05:19:18.129Z,89.46
2023-02-11T05:22:00.194Z,89.72
2023-02-11T05:24:29.660Z,89.60
2023-02-11T05:26:56.728Z,89.85
2023-02-11T05:29:23.794Z,89.99
2023-02-11T05:31:51.077Z,90.35
2023-02-11T05:34:18.319Z,90.06
2023-02-11T05:36:45.431Z,89.83
2023-02-11T05:39:12.803Z,90.09
2023-02-11T05:41:39.813Z,90.22
2023-02-11T05:44:06.863Z,90.14
2023-02-11T05:46:34.242Z,90.34
2023-02-11T05:49:01.416Z,90.31
2023-02-11T05:51:28.469Z,90.34
2023-02-11T05:53:55.911Z,90.19
2023-02-11T05:56:23.034Z,90.55
2023-02-11T05:58:50.128Z,90.41
2023-02-11T06:01:17.412Z,90.43
2023-02-11T06:03:44.758Z,89.97
2023-02-11T06:06:12.890Z,89.46
2023-02-11T06:08:40.080Z,89.00
2023-02-11T06:11:07.430Z,88.52
2023-02-11T06:13:35.449Z,88.12
2023-02-11T06:16:03.090Z,87.96
2023-02-11T06:18:30.592Z,87.81
2023-02-11T06:20:57.606Z,87.41
2023-02-11T06:23:24.619Z,87.15
2023-02-11T06:25:52.993Z,87.09
2023-02-11T06:28:20.291Z,86.60
2023-02-11T06:30:47.625Z,86.04
2023-02-11T06:33:15.617Z,85.70
2023-02-11T06:35:42.879Z,85.55
2023-02-11T06:38:09.902Z,85.56
2023-02-11T06:40:37.265Z,85.28
2023-02-11T06:43:04.252Z,84.97
2023-02-11T06:45:32.264Z,84.16
2023-02-11T06:47:59.549Z,83.55
2023-02-11T06:50:26.557Z,83.32
2023-02-11T06:52:53.617Z,82.64
2023-02-11T06:55:20.937Z,83.15
2023-02-11T06:57:47.922Z,81.84
2023-02-11T07:00:15.279Z,81.83
2023-02-11T07:02:43.962Z,81.35
2023-02-11T07:05:11.249Z,81.28
2023-02-11T07:07:38.374Z,80.08
2023-02-11T07:10:06.537Z,80.67
2023-02-11T07:12:33.554Z,79.60
2023-02-11T07:15:00.579Z,79.78
2023-02-11T07:17:27.849Z,79.52
2023-02-11T07:19:54.865Z,79.01
2023-02-11T07:22:21.937Z,78.55
2023-02-11T07:24:49.291Z,79.02
2023-02-11T07:27:16.297Z,78.21
2023-02-11T07:29:43.515Z,77.38
2023-02-11T07:32:10.886Z,77.07
2023-02-11T07:34:37.952Z,76.61
2023-02-11T07:37:05.291Z,75.69
2023-02-11T07:39:32.766Z,76.85
2023-02-11T07:42:00.188Z,76.06
2023-02-11T07:44:27.649Z,75.74
2023-02-11T07:46:55.015Z,75.31
2023-02-11T07:49:22.455Z,74.79
2023-02-11T07:51:51.263Z,75.23
2023-02-11T07:54:19.702Z,76.24
2023-02-11T07:56:46.819Z,74.61
2023-02-11T07:59:13.908Z,74.96
2023-02-11T08:01:41.444Z,76.29
2023-02-11T08:04:08.793Z,74.78
2023-02-11T08:06:41.372Z,73.86
2023-02-11T08:09:09.860Z,73.25
2023-02-11T08:11:37.173Z,73.22
2023-02-11T08:14:04.692Z,71.35
2023-02-11T08:16:34.362Z,71.89
2023-02-11T08:19:06.734Z,70.01
2023-02-11T08:21:34.265Z,71.07
2023-02-11T08:24:02.954Z,71.43
2023-02-11T08:26:31.801Z,71.12
2023-02-11T08:28:59.480Z,70.61
2023-02-11T08:31:30.806Z,69.87
2023-02-11T08:33:58.278Z,70.44
2023-02-11T08:36:29.084Z,71.62
2023-02-11T08:39:16.017Z,71.08
2023-02-11T08:41:50.114Z,70.56
2023-02-11T08:44:18.529Z,70.73
2023-02-11T08:46:46.402Z,70.22
2023-02-11T08:49:14.214Z,69.85
2023-02-11T08:51:41.330Z,69.57
2023-02-11T08:54:09.938Z,70.24
2023-02-11T08:56:38.686Z,69.89
2023-02-11T08:59:07.110Z,68.92
2023-02-11T09:01:34.583Z,69.37
2023-02-11T09:04:03.490Z,67.45
2023-02-11T09:06:30.872Z,67.84
2023-02-11T09:08:58.471Z,68.25
2023-02-11T09:11:29.062Z,66.57
2023-02-11T09:13:56.119Z,67.81
2023-02-11T09:16:26.322Z,68.16
2023-02-11T09:18:53.810Z,67.37
2023-02-11T09:21:20.954Z,67.45
2023-02-11T09:23:48.302Z,66.56
2023-02-11T09:26:16.668Z,65.02
2023-02-11T09:28:43.973Z,64.19
2023-02-11T09:31:15.248Z,64.75
2023-02-11T09:33:47.781Z,64.32
2023-02-11T09:36:18.060Z,64.35
2023-02-11T09:38:45.643Z,63.75
2023-02-11T09:41:30.918Z,64.58
2023-02-11T09:44:00.902Z,64.58
2023-02-11T09:46:32.145Z,65.48
2023-02-11T09:48:59.790Z,65.31
2023-02-11T09:51:39.918Z,65.20
2023-02-11T09:54:15.951Z,65.26
2023-02-11T09:56:42.978Z,66.06
2023-02-11T09:59:15.780Z,64.94
2023-02-11T10:01:49.370Z,65.98
2023-02-11T10:04:33.807Z,64.71
2023-02-11T10:07:10.768Z,66.24
2023-02-11T10:09:40.944Z,65.26
2023-02-11T10:12:10.938Z,65.00
2023-02-11T10:15:09.406Z,64.39
2023-02-11T10:17:46.828Z,64.63
2023-02-11T10:20:32.885Z,65.71
2023-02-11T10:23:02.443Z,67.19
2023-02-11T10:25:33.956Z,67.30
2023-02-11T10:28:10.462Z,67.86
2023-02-11T10:30:42.936Z,68.66
2023-02-11T10:33:22.013Z,68.24
2023-02-11T10:35:49.425Z,68.89
2023-02-11T10:38:16.545Z,68.70
2023-02-11T10:40:43.659Z,66.19
2023-02-11T10:43:14.137Z,65.62
2023-02-11T10:45:47.841Z,63.46
2023-02-11T10:48:41.565Z,63.64
2023-02-11T10:51:14.810Z,61.63
2023-02-11T10:53:42.223Z,60.33
2023-02-11T10:56:13.107Z,57.56
2023-02-11T10:58:45.576Z,56.71
2023-02-11T11:01:23.850Z,56.75
2023-02-11T11:03:52.818Z,56.22
2023-02-11T11:06:32.159Z,56.10
2023-02-11T11:08:59.371Z,56.27
2023-02-11T11:11:27.204Z,55.81
2023-02-11T11:13:58.217Z,55.57
2023-02-11T11:16:35.608Z,55.55
2023-02-11T11:19:09.241Z,55.08
2023-02-11T11:21:41.699Z,55.36
2023-02-11T11:24:31.446Z,53.48
2023-02-11T11:27:01.074Z,52.45
2023-02-11T11:29:47.216Z,51.39
2023-02-11T11:32:33.706Z,50.10
2023-02-11T11:35:10.088Z,49.80
2023-02-11T11:37:37.648Z,50.10
2023-02-11T11:40:11.440Z,49.96
2023-02-11T11:42:39.840Z,49.10
2023-02-11T11:45:16.437Z,49.05
2023-02-11T11:47:48.997Z,48.60
2023-02-11T11:50:37.452Z,48.32
2023-02-11T11:53:26.146Z,49.00
2023-02-11T11:56:00.391Z,49.53
2023-02-11T11:58:28.383Z,50.17
2023-02-11T12:01:33.204Z,50.08
2023-02-11T12:04:16.605Z,50.12
2023-02-11T12:07:02.346Z,50.38
2023-02-11T12:09:45.691Z,50.64
2023-02-11T12:12:32.637Z,50.80
2023-02-11T12:15:44.164Z,50.56
2023-02-11T12:18:36.280Z,49.42
2023-02-11T12:21:36.212Z,49.47
2023-02-11T12:24:23.794Z,47.84
2023-02-11T12:27:16.176Z,49.34
2023-02-11T12:29:43.262Z,47.87
2023-02-11T12:32:39.215Z,47.93
2023-02-11T12:35:33.772Z,48.29
2023-02-11T12:38:15.888Z,49.10
2023-02-11T12:40:58.255Z,49.64
2023-02-11T12:43:45.754Z,49.64
2023-02-11T12:46:32.947Z,48.71
2023-02-11T12:49:20.182Z,48.54
2023-02-11T12:52:01.347Z,46.19
2023-02-11T12:55:09.985Z,44.59
2023-02-11T12:57:38.367Z,42.62
2023-02-11T13:00:24.745Z,42.18
2023-02-11T13:02:56.643Z,41.82
2023-02-11T13:05:37.546Z,42.54
2023-02-11T13:08:14.755Z,41.91
2023-02-11T13:10:45.631Z,40.91
2023-02-11T13:13:28.831Z,41.54
2023-02-11T13:16:08.487Z,40.64
2023-02-11T13:18:52.765Z,40.71
2023-02-11T13:21:38.746Z,40.52
2023-02-11T13:24:12.816Z,40.91
2023-02-11T13:26:46.505Z,40.40
2023-02-11T13:29:52.237Z,40.13
2023-02-11T13:32:19.610Z,40.59
2023-02-11T13:34:55.473Z,40.12
2023-02-11T13:37:34.146Z,40.25
2023-02-11T13:40:04.384Z,38.97
2023-02-11T13:42:34.317Z,39.33
2023-02-11T13:45:01.563Z,39.55
2023-02-11T13:47:34.200Z,40.02
2023-02-11T13:50:05.530Z,39.79
2023-02-11T13:52:37.670Z,40.37
2023-02-11T13:55:13.756Z,40.45
2023-02-11T13:57:41.762Z,40.92
2023-02-11T14:00:33.494Z,40.38
2023-02-11T14:03:31.716Z,40.83
2023-02-11T14:06:29.229Z,40.88
2023-02-11T14:09:08.947Z,41.32
2023-02-11T14:11:41.921Z,41.11
2023-02-11T14:14:27.963Z,41.11
2023-02-11T14:17:07.108Z,41.70
2023-02-11T14:19:45.429Z,41.64
2023-02-11T14:22:26.756Z,41.83
2023-02-11T14:24:59.643Z,42.25
2023-02-11T14:27:56.733Z,42.17
2023-02-11T14:30:35.284Z,42.46
2023-02-11T14:33:22.700Z,42.90
2023-02-11T14:36:08.796Z,43.38
2023-02-11T14:38:38.528Z,43.66
2023-02-11T14:41:22.881Z,43.54
2023-02-11T14:43:59.454Z,43.91
2023-02-11T14:46:30.247Z,44.09
2023-02-11T14:49:00.136Z,44.99
2023-02-11T14:51:33.529Z,45.21
2023-02-11T14:54:18.288Z,45.64
2023-02-11T14:56:46.755Z,45.66
2023-02-11T14:59:20.187Z,46.16
2023-02-11T15:01:52.146Z,46.94
2023-02-11T15:04:37.833Z,46.73
2023-02-11T15:07:08.214Z,47.11
2023-02-11T15:09:40.816Z,47.38
2023-02-11T15:12:35.459Z,47.89
2023-02-11T15:15:02.534Z,48.38
2023-02-11T15:17:31.796Z,48.80
2023-02-11T15:20:00.900Z,49.20
2023-02-11T15:22:33.325Z,49.24
2023-02-11T15:25:11.828Z,49.52
2023-02-11T15:27:42.805Z,49.72
2023-02-11T15:30:22.029Z,49.96
2023-02-11T15:33:19.973Z,50.46
2023-02-11T15:35:47.288Z,50.63
2023-02-11T15:38:14.355Z,50.85
2023-02-11T15:41:01.053Z,51.13
2023-02-11T15:43:45.809Z,50.87
2023-02-11T15:46:22.023Z,51.04
2023-02-11T15:48:53.633Z,51.30
2023-02-11T15:51:25.196Z,51.28
2023-02-11T15:53:56.909Z,51.58
2023-02-11T15:56:25.603Z,52.04
2023-02-11T15:58:55.873Z,52.15
2023-02-11T16:01:37.027Z,52.48
2023-02-11T16:04:05.531Z,53.01
2023-02-11T16:06:41.590Z,53.46
2023-02-11T16:09:08.828Z,53.52
2023-02-11T16:11:51.419Z,53.55
2023-02-11T16:14:27.920Z,53.69
2023-02-11T16:17:20.120Z,53.89
2023-02-11T16:19:49.237Z,54.18
2023-02-11T16:22:26.291Z,54.66
2023-02-11T16:24:55.948Z,54.85
2023-02-11T16:27:27.501Z,54.74
2023-02-11T16:29:54.983Z,54.84
2023-02-11T16:32:23.439Z,54.94
2023-02-11T16:34:51.352Z,54.69
2023-02-11T16:37:18.835Z,54.49
2023-02-11T16:39:45.842Z,53.92
2023-02-11T16:42:13.232Z,53.72
2023-02-11T16:44:40.525Z,53.78
2023-02-11T16:47:16.880Z,53.13
2023-02-11T16:49:44.347Z,53.14
2023-02-11T16:52:15.739Z,53.02
2023-02-11T16:54:42.789Z,52.95
2023-02-11T16:57:19.206Z,52.61
2023-02-11T16:59:46.339Z,52.51
2023-02-11T17:02:25.577Z,52.66
2023-02-11T17:04:53.483Z,52.88
2023-02-11T17:07:21.151Z,52.81
2023-02-11T17:09:48.347Z,53.01
2023-02-11T17:12:15.514Z,52.99
2023-02-11T17:14:42.839Z,52.91
2023-02-11T17:17:10.862Z,53.42
2023-02-11T17:19:38.399Z,53.95
2023-02-11T17:22:06.449Z,54.12
2023-02-11T17:24:33.445Z,54.27
2023-02-11T17:27:00.620Z,54.09
2023-02-11T17:29:28.046Z,54.74
2023-02-11T17:31:55.247Z,54.61
2023-02-11T17:34:23.033Z,54.19
2023-02-11T17:36:50.531Z,55.23
2023-02-11T17:39:19.224Z,55.63
2023-02-11T17:41:46.223Z,56.23
2023-02-11T17:44:15.475Z,56.76
2023-02-11T17:46:42.841Z,57.68
2023-02-11T17:49:11.542Z,58.08
2023-02-11T17:51:40.079Z,58.73
2023-02-11T17:54:12.083Z,59.42
2023-02-11T17:56:39.762Z,59.76
2023-02-11T17:59:08.594Z,60.39
2023-02-11T18:01:36.730Z,60.18
2023-02-11T18:04:05.129Z,60.84
2023-02-11T18:06:33.816Z,60.59
2023-02-11T18:09:04.236Z,61.04
2023-02-11T18:11:33.748Z,61.68
2023-02-11T18:14:03.317Z,61.71
2023-02-11T18:16:30.930Z,61.82
2023-02-11T18:18:58.769Z,61.84
2023-02-11T18:21:26.379Z,61.84
2023-02-11T18:23:53.665Z,61.57
2023-02-11T18:26:21.996Z,61.69
2023-02-11T18:28:49.077Z,62.18
2023-02-11T18:31:17.319Z,62.17
2023-02-11T18:33:45.011Z,62.20
2023-02-11T18:36:14.419Z,61.97
2023-02-11T18:38:44.170Z,61.73
2023-02-11T18:41:12.798Z,61.61
2023-02-11T18:43:40.192Z,62.10
2023-02-11T18:46:10.495Z,62.40
2023-02-11T18:48:38.773Z,63.04
2023-02-11T18:51:15.092Z,63.61
2023-02-11T18:53:43.100Z,63.89
2023-02-11T18:56:15.546Z,64.52
2023-02-11T18:58:42.892Z,64.55
2023-02-11T19:01:15.586Z,64.82
2023-02-11T19:03:43.543Z,65.12
2023-02-11T19:06:19.788Z,64.50
2023-02-11T19:08:47.509Z,64.22
2023-02-11T19:11:17.281Z,63.81
2023-02-11T19:13:44.641Z,63.86
2023-02-11T19:16:14.953Z,63.65
2023-02-11T19:18:42.109Z,63.92
2023-02-11T19:21:10.366Z,64.03
2023-02-11T19:23:38.021Z,63.91
2023-02-11T19:26:06.392Z,64.19
2023-02-11T19:28:35.359Z,64.21
2023-02-11T19:31:07.923Z,64.28
2023-02-11T19:33:35.091Z,64.48
2023-02-11T19:36:06.958Z,64.42
2023-02-11T19:38:34.994Z,64.71
2023-02-11T19:41:02.387Z,64.69
2023-02-11T19:43:29.777Z,64.86
2023-02-11T19:45:57.643Z,64.89
2023-02-11T19:48:25.545Z,64.92
2023-02-11T19:50:52.932Z,64.74
2023-02-11T19:53:20.509Z,64.79
2023-02-11T19:55:48.204Z,65.00
2023-02-11T19:58:16.447Z,65.48
2023-02-11T20:00:43.897Z,65.72
2023-02-11T20:03:11.457Z,66.44
2023-02-11T20:05:46.962Z,66.61
2023-02-11T20:08:14.510Z,67.13
2023-02-11T20:10:41.578Z,68.18
2023-02-11T20:13:08.708Z,69.87
2023-02-11T20:15:36.710Z,70.85
2023-02-11T20:18:03.918Z,71.74
2023-02-11T20:20:30.989Z,72.90
2023-02-11T20:22:58.760Z,73.29
2023-02-11T20:25:25.850Z,73.98
2023-02-11T20:27:52.904Z,74.25
2023-02-11T20:30:21.748Z,74.69
2023-02-11T20:32:48.841Z,74.36
2023-02-11T20:35:15.975Z,74.49
2023-02-11T20:37:44.256Z,75.01
2023-02-11T20:40:11.776Z,75.16
2023-02-11T20:42:38.775Z,75.63
2023-02-11T20:45:06.350Z,76.11
2023-02-11T20:47:33.612Z,76.54
2023-02-11T20:50:00.718Z,77.37
2023-02-11T20:52:28.760Z,77.53
2023-02-11T20:54:55.823Z,78.40
2023-02-11T20:57:22.970Z,79.40
2023-02-11T20:59:50.427Z,79.83
2023-02-11T21:02:17.523Z,80.02
2023-02-11T21:04:44.521Z,80.93
2023-02-11T21:07:11.940Z,81.10
2023-02-11T21:09:39.631Z,81.36
2023-02-11T21:12:07.774Z,82.03
2023-02-11T21:14:35.125Z,82.56
2023-02-11T21:17:02.446Z,83.01
2023-02-11T21:19:29.521Z,82.19
2023-02-11T21:22:00.508Z,82.84
2023-02-11T21:24:27.672Z,83.63
2023-02-11T21:26:54.914Z,83.93
2023-02-11T21:29:22.716Z,84.64
2023-02-11T21:31:51.324Z,85.50
2023-02-11T21:34:20.084Z,85.67
2023-02-11T21:36:47.498Z,86.80
2023-02-11T21:39:14.508Z,87.36
2023-02-11T21:41:41.543Z,88.18
2023-02-11T21:44:09.385Z,88.97
2023-02-11T21:46:36.451Z,89.15
2023-02-11T21:49:03.566Z,90.08
2023-02-11T21:51:31.363Z,90.83
2023-02-11T21:54:01.372Z,90.90
2023-02-11T21:56:30.064Z,92.44
2023-02-11T21:58:58.599Z,93.67
2023-02-11T22:01:30.847Z,93.79
2023-02-11T22:03:58.867Z,93.79
2023-02-11T22:06:28.234Z,94.28
2023-02-11T22:08:55.648Z,96.47
2023-02-11T22:11:23.684Z,99.92
2023-02-11T22:13:55.286Z,100.00
2023-02-11T22:16:23.384Z,100.00
2023-02-11T22:18:51.518Z,100.00
2023-02-11T22:21:20.882Z,100.00
2023-02-11T22:23:48.491Z,100.00
2023-02-11T22:26:18.567Z,100.00
2023-02-11T22:28:46.159Z,100.00
2023-02-11T22:31:20.595Z,100.00
2023-02-11T22:33:47.739Z,100.00
2023-02-11T22:36:27.115Z,100.00
2023-02-11T22:38:54.887Z,100.00
2023-02-11T22:41:22.818Z,100.00
2023-02-11T22:43:49.914Z,100.00
2023-02-11T22:46:18.620Z,100.00
2023-02-11T22:48:46.781Z,100.00
2023-02-11T22:51:19.516Z,100.00
2023-02-11T22:54:01.763Z,100.00
2023-02-11T22:56:30.872Z,100.00
2023-02-11T22:59:03.368Z,100.00
2023-02-11T23:01:31.270Z,100.00
2023-02-11T23:04:03.861Z,100.00
2023-02-11T23:06:31.249Z,100.00
2023-02-11T23:08:58.883Z,100.00
2023-02-11T23:11:28.347Z,100.00
2023-02-11T23:13:55.908Z,100.00
2023-02-11T23:16:32.418Z,100.00
2023-02-11T23:19:00.886Z,100.00
2023-02-11T23:21:31.170Z,100.00
2023-02-11T23:24:00.362Z,100.00
2023-02-11T23:26:28.195Z,100.00
2023-02-11T23:28:56.107Z,100.00
2023-02-11T23:31:25.916Z,100.00
2023-02-11T23:33:53.190Z,100.00
2023-02-11T23:36:21.408Z,100.00
2023-02-11T23:38:49.060Z,100.00
2023-02-11T23:41:16.539Z,100.00
2023-02-11T23:43:44.335Z,100.00
2023-02-11T23:46:11.774Z,100.00
2023-02-11T23:48:40.475Z,100.00
2023-02-11T23:51:09.801Z,100.00
2023-02-11T23:53:37.946Z,100.00
2023-02-11T23:56:09.751Z,100.00
2023-02-11T23:58:37.255Z,100.00
